createdAt,value
2022-12-10T00:00:25.392Z,71.34
2022-12-10T00:03:12.266Z,72.04
2022-12-10T00:06:03.760Z,72.06
2022-12-10T00:08:51.070Z,71.92
2022-12-10T00:11:41.333Z,72.30
2022-12-10T00:14:30.869Z,72.02
2022-12-10T00:17:17.789Z,72.13
2022-12-10T00:20:05.233Z,72.34
2022-12-10T00:22:52.106Z,72.07
2022-12-10T00:25:43.801Z,72.23
2022-12-10T00:28:30.786Z,71.56
2022-12-10T00:31:20.443Z,72.31
2022-12-10T00:34:10.898Z,72.09
2022-12-10T00:36:57.693Z,72.24
2022-12-10T00:39:44.512Z,72.14
2022-12-10T00:42:31.325Z,72.24
2022-12-10T00:45:19.772Z,72.47
2022-12-10T00:48:06.606Z,72.00
2022-12-10T00:50:57.646Z,72.04
2022-12-10T00:53:45.546Z,72.22
2022-12-10T00:56:33.564Z,72.32
2022-12-10T00:59:20.356Z,72.28
2022-12-10T01:02:07.190Z,71.72
2022-12-10T01:04:54.902Z,71.91
2022-12-10T01:08:03.457Z,72.39
2022-12-10T01:10:56.904Z,72.44
2022-12-10T01:13:47.637Z,72.41
2022-12-10T01:16:34.900Z,72.27
2022-12-10T01:19:22.069Z,72.21
2022-12-10T01:22:09.003Z,72.45
2022-12-10T01:24:55.906Z,72.55
2022-12-10T01:27:42.724Z,72.81
2022-12-10T01:30:29.565Z,72.04
2022-12-10T01:33:16.436Z,72.02
2022-12-10T01:36:12.868Z,72.24
2022-12-10T01:39:00.458Z,71.91
2022-12-10T01:41:53.444Z,72.08
2022-12-10T01:44:42.983Z,72.05
2022-12-10T01:47:30.003Z,72.25
2022-12-10T01:50:17.487Z,71.94
2022-12-10T01:53:04.725Z,71.75
2022-12-10T01:55:51.871Z,72.18
2022-12-10T01:58:39.220Z,71.81
2022-12-10T02:01:37.806Z,72.01
2022-12-10T02:04:42.925Z,71.91
2022-12-10T02:08:03.594Z,72.20
2022-12-10T02:10:59.469Z,72.05
2022-12-10T02:13:53.537Z,72.49
2022-12-10T02:16:53.992Z,71.98
2022-12-10T02:19:58.924Z,72.26
2022-12-10T02:22:58.089Z,72.18
2022-12-10T02:25:52.567Z,72.09
2022-12-10T02:28:52.351Z,72.10
2022-12-10T02:31:42.869Z,72.36
2022-12-10T02:34:52.252Z,72.12
2022-12-10T02:37:44.919Z,72.06
2022-12-10T02:40:38.185Z,71.82
2022-12-10T02:43:25.588Z,71.94
2022-12-10T02:46:12.694Z,72.11
2022-12-10T02:49:01.307Z,72.33
2022-12-10T02:51:48.156Z,71.91
2022-12-10T02:54:39.896Z,72.37
2022-12-10T02:57:51.574Z,72.42
2022-12-10T03:00:49.209Z,72.15
2022-12-10T03:03:45.840Z,72.24
2022-12-10T03:06:39.295Z,72.33
2022-12-10T03:09:31.694Z,72.25
2022-12-10T03:12:23.924Z,72.64
2022-12-10T03:15:12.604Z,72.00
2022-12-10T03:18:02.180Z,72.79
2022-12-10T03:20:49.512Z,72.06
2022-12-10T03:23:39.375Z,72.06
2022-12-10T03:26:26.465Z,72.55
2022-12-10T03:29:22.536Z,72.68
2022-12-10T03:32:09.367Z,72.50
2022-12-10T03:34:57.909Z,71.99
2022-12-10T03:37:44.734Z,72.28
2022-12-10T03:40:31.894Z,72.43
2022-12-10T03:43:18.707Z,72.64
2022-12-10T03:46:05.717Z,72.61
2022-12-10T03:48:52.998Z,72.31
2022-12-10T03:51:39.913Z,72.49
2022-12-10T03:54:26.835Z,72.50
2022-12-10T03:57:13.791Z,72.23
2022-12-10T04:00:08.310Z,72.15
2022-12-10T04:02:55.489Z,72.05
2022-12-10T04:05:42.306Z,72.18
2022-12-10T04:08:29.271Z,72.56
2022-12-10T04:11:17.125Z,72.60
2022-12-10T04:14:22.626Z,72.14
2022-12-10T04:17:09.456Z,72.19
2022-12-10T04:19:56.259Z,72.66
2022-12-10T04:23:01.826Z,72.12
2022-12-10T04:26:07.221Z,72.14
2022-12-10T04:28:53.970Z,72.51
2022-12-10T04:31:40.752Z,72.54
2022-12-10T04:34:27.739Z,72.50
2022-12-10T04:37:19.134Z,72.06
2022-12-10T04:40:07.218Z,72.65
2022-12-10T04:42:54.299Z,72.16
2022-12-10T04:45:41.140Z,72.29
2022-12-10T04:48:27.987Z,72.86
2022-12-10T04:51:17.650Z,72.49
2022-12-10T04:54:05.316Z,72.85
2022-12-10T04:56:52.342Z,72.54
2022-12-10T04:59:39.227Z,72.33
2022-12-10T05:02:26.071Z,72.59
2022-12-10T05:05:16.144Z,72.52
2022-12-10T05:08:12.163Z,72.14
2022-12-10T05:11:03.620Z,72.33
2022-12-10T05:13:54.274Z,72.20
2022-12-10T05:16:41.349Z,72.43
2022-12-10T05:19:28.205Z,72.36
2022-12-10T05:22:36.165Z,72.59
2022-12-10T05:25:23.009Z,71.96
2022-12-10T05:28:09.867Z,72.15
2022-12-10T05:30:57.464Z,72.52
2022-12-10T05:33:44.481Z,72.39
2022-12-10T05:36:32.469Z,72.21
2022-12-10T05:39:19.282Z,72.73
2022-12-10T05:42:06.168Z,72.79
2022-12-10T05:44:52.914Z,71.95
2022-12-10T05:47:39.810Z,72.44
2022-12-10T05:50:26.571Z,72.21
2022-12-10T05:53:14.863Z,72.50
2022-12-10T05:56:04.586Z,72.77
2022-12-10T05:58:52.994Z,72.44
2022-12-10T06:01:39.748Z,72.81
2022-12-10T06:04:26.533Z,72.72
2022-12-10T06:07:13.430Z,72.33
2022-12-10T06:10:00.189Z,72.28
2022-12-10T06:12:49.877Z,72.25
2022-12-10T06:15:39.828Z,72.74
2022-12-10T06:18:26.656Z,72.51
2022-12-10T06:21:15.960Z,72.69
2022-12-10T06:24:02.624Z,72.43
2022-12-10T06:26:52.670Z,72.81
2022-12-10T06:29:42.323Z,72.57
2022-12-10T06:32:29.132Z,72.46
2022-12-10T06:35:15.919Z,72.48
2022-12-10T06:38:02.732Z,72.72
2022-12-10T06:40:49.582Z,72.66
2022-12-10T06:43:36.990Z,72.89
2022-12-10T06:46:23.869Z,72.60
2022-12-10T06:49:10.811Z,72.69
2022-12-10T06:51:57.669Z,72.89
2022-12-10T06:54:44.465Z,72.68
2022-12-10T06:57:34.287Z,72.43
2022-12-10T07:00:22.282Z,72.60
2022-12-10T07:03:09.198Z,72.30
2022-12-10T07:05:58.741Z,72.75
2022-12-10T07:08:45.635Z,72.48
2022-12-10T07:11:32.541Z,72.50
2022-12-10T07:14:19.541Z,72.36
2022-12-10T07:17:06.380Z,71.92
2022-12-10T07:19:53.173Z,72.46
2022-12-10T07:22:43.259Z,72.13
2022-12-10T07:25:51.080Z,72.39
2022-12-10T07:28:46.636Z,72.70
2022-12-10T07:31:38.973Z,72.20
2022-12-10T07:34:25.898Z,72.42
2022-12-10T07:37:12.801Z,72.69
2022-12-10T07:39:59.686Z,72.71
2022-12-10T07:42:47.581Z,72.11
2022-12-10T07:45:34.424Z,72.82
2022-12-10T07:48:21.514Z,72.23
2022-12-10T07:51:12.859Z,72.58
2022-12-10T07:53:59.634Z,72.53
2022-12-10T07:56:46.505Z,72.44
2022-12-10T07:59:33.309Z,72.34
2022-12-10T08:02:20.662Z,72.40
2022-12-10T08:05:07.697Z,72.04
2022-12-10T08:08:03.046Z,72.35
2022-12-10T08:10:52.086Z,72.25
2022-12-10T08:13:39.053Z,72.34
2022-12-10T08:16:34.779Z,72.94
2022-12-10T08:19:25.806Z,72.37
2022-12-10T08:22:26.178Z,72.61
2022-12-10T08:25:15.901Z,72.53
2022-12-10T08:28:03.966Z,72.67
2022-12-10T08:31:03.673Z,72.73
2022-12-10T08:33:52.238Z,72.29
2022-12-10T08:36:39.121Z,72.41
2022-12-10T08:39:31.600Z,72.86
2022-12-10T08:42:18.397Z,72.87
2022-12-10T08:45:06.395Z,72.71
2022-12-10T08:47:53.494Z,72.36
2022-12-10T09:58:36.926Z,73.20
2022-12-10T10:45:52.524Z,74.68
2022-12-10T10:48:42.496Z,74.97
2022-12-10T10:51:33.072Z,75.69
2022-12-10T10:58:23.596Z,76.60
2022-12-10T11:06:03.610Z,76.77
2022-12-10T11:09:33.138Z,76.57
2022-12-10T11:25:41.595Z,76.34
2022-12-10T11:40:38.456Z,75.94
2022-12-10T11:44:26.868Z,75.93
2022-12-10T11:47:57.009Z,76.04
2022-12-10T12:12:42.556Z,75.75
2022-12-10T12:21:25.691Z,75.84
2022-12-10T12:24:06.218Z,75.54
2022-12-10T12:35:24.933Z,75.31
2022-12-10T12:46:49.412Z,75.36
2022-12-10T13:00:34.519Z,75.43
2022-12-10T13:03:57.078Z,75.40
2022-12-10T13:07:45.969Z,75.42
2022-12-10T13:11:28.187Z,75.45
2022-12-10T13:15:22.720Z,75.10
2022-12-10T13:21:54.594Z,75.25
2022-12-10T13:26:27.100Z,75.21
2022-12-10T13:30:00.831Z,75.43
2022-12-10T13:45:22.610Z,75.43
2022-12-10T13:52:33.260Z,75.26
2022-12-10T14:52:25.629Z,75.07
2022-12-10T15:19:03.135Z,74.89
2022-12-10T15:30:57.929Z,74.85
2022-12-10T15:34:32.972Z,74.83
2022-12-10T15:38:41.595Z,74.81
2022-12-10T15:42:33.457Z,74.91
2022-12-10T16:13:31.950Z,73.83
2022-12-10T16:16:21.597Z,73.84
2022-12-10T16:19:34.527Z,74.19
2022-12-10T16:22:24.916Z,73.99
2022-12-10T16:25:12.067Z,74.37
2022-12-10T16:28:09.612Z,74.32
2022-12-10T16:30:58.657Z,74.18
2022-12-10T16:33:47.755Z,74.28
2022-12-10T16:36:36.712Z,74.34
2022-12-10T16:39:31.226Z,74.17
2022-12-10T16:42:26.140Z,74.07
2022-12-10T16:45:32.231Z,74.16
2022-12-10T16:48:20.177Z,73.98
2022-12-10T16:51:16.296Z,74.09
2022-12-10T16:54:04.612Z,74.12
2022-12-10T16:56:54.573Z,73.93
2022-12-10T16:59:47.242Z,74.22
2022-12-10T17:02:36.793Z,74.28
2022-12-10T17:05:31.324Z,74.35
2022-12-10T17:08:22.069Z,74.32
2022-12-10T17:11:37.884Z,73.98
2022-12-10T17:14:29.507Z,74.20
2022-12-10T17:17:21.860Z,74.42
2022-12-10T17:20:17.485Z,74.22
2022-12-10T17:23:06.995Z,74.09
2022-12-10T17:25:54.096Z,74.67
2022-12-10T17:28:47.143Z,74.51
2022-12-10T17:31:34.252Z,74.43
2022-12-10T17:34:25.253Z,74.38
2022-12-10T17:37:15.601Z,74.24
2022-12-10T17:40:03.775Z,74.16
2022-12-10T17:42:51.391Z,74.39
2022-12-10T17:45:41.272Z,73.98
2022-12-10T17:48:36.011Z,74.42
2022-12-10T17:51:32.933Z,74.80
2022-12-10T17:54:19.771Z,74.47
2022-12-10T17:57:14.868Z,74.36
2022-12-10T18:00:01.897Z,74.49
2022-12-10T18:02:49.726Z,74.36
2022-12-10T18:05:36.716Z,74.62
2022-12-10T18:08:36.333Z,74.02
2022-12-10T18:11:26.282Z,74.44
2022-12-10T18:14:15.637Z,74.26
2022-12-10T18:17:04.307Z,74.43
2022-12-10T18:19:53.882Z,74.70
2022-12-10T18:22:43.061Z,74.47
2022-12-10T18:25:30.701Z,74.28
2022-12-10T18:28:25.633Z,74.11
2022-12-10T18:31:26.200Z,74.15
2022-12-10T18:34:14.897Z,74.53
2022-12-10T18:37:02.869Z,74.32
2022-12-10T18:39:52.462Z,74.27
2022-12-10T18:42:43.730Z,74.23
2022-12-10T18:45:36.164Z,74.33
2022-12-10T18:48:24.121Z,74.44
2022-12-10T18:51:40.244Z,74.70
2022-12-10T18:54:31.935Z,74.48
2022-12-10T18:57:34.025Z,74.48
2022-12-10T19:00:29.556Z,74.38
2022-12-10T19:03:20.883Z,74.23
2022-12-10T19:06:14.390Z,74.01
2022-12-10T19:09:18.223Z,74.41
2022-12-10T19:12:09.033Z,74.25
2022-12-10T19:15:06.444Z,74.46
2022-12-10T19:18:10.733Z,74.40
2022-12-10T19:20:59.922Z,74.41
2022-12-10T19:23:47.006Z,74.45
2022-12-10T19:26:42.106Z,74.40
2022-12-10T19:29:36.762Z,74.39
2022-12-10T19:32:33.274Z,74.56
2022-12-10T19:38:35.884Z,74.91
2022-12-10T19:41:32.421Z,74.88
2022-12-10T19:44:21.445Z,74.99
2022-12-10T19:47:20.820Z,74.27
2022-12-10T19:50:12.511Z,74.66
2022-12-10T19:53:00.279Z,74.43
2022-12-10T19:55:51.367Z,74.21
2022-12-10T19:58:40.580Z,74.06
2022-12-10T20:01:30.100Z,74.23
2022-12-10T20:04:31.525Z,74.37
2022-12-10T20:07:24.042Z,74.39
2022-12-10T20:10:25.879Z,74.57
2022-12-10T20:13:12.867Z,74.53
2022-12-10T20:16:00.171Z,74.53
2022-12-10T20:18:56.984Z,74.35
2022-12-10T20:21:49.021Z,74.60
2022-12-10T20:24:37.532Z,74.69
2022-12-10T20:27:27.388Z,74.56
2022-12-10T20:30:23.698Z,74.52
2022-12-10T20:33:44.679Z,74.26
2022-12-10T20:36:27.033Z,74.23
2022-12-10T20:39:19.726Z,74.43
2022-12-10T20:42:06.812Z,74.46
2022-12-10T20:44:53.663Z,74.28
2022-12-10T20:47:42.034Z,74.57
2022-12-10T20:50:31.398Z,74.50
2022-12-10T20:53:20.719Z,74.27
2022-12-10T20:56:13.341Z,74.33
2022-12-10T20:59:00.651Z,74.18
2022-12-10T21:01:47.889Z,74.33
2022-12-10T21:04:34.794Z,73.87
2022-12-10T21:07:29.122Z,74.43
2022-12-10T21:10:36.625Z,73.82
2022-12-10T21:13:31.740Z,74.32
2022-12-10T21:16:27.679Z,74.23
2022-12-10T21:19:15.098Z,74.09
2022-12-10T21:22:02.007Z,74.10
2022-12-10T21:24:52.372Z,73.91
2022-12-10T21:27:39.461Z,73.93
2022-12-10T21:30:26.349Z,74.05
2022-12-10T21:33:20.419Z,74.14
2022-12-10T21:36:08.876Z,73.78
2022-12-10T21:39:07.273Z,74.01
2022-12-10T21:42:12.739Z,73.83
2022-12-10T21:44:59.956Z,73.81
2022-12-10T21:47:46.715Z,73.68
2022-12-10T21:50:33.535Z,73.88
2022-12-10T21:53:20.435Z,73.91
2022-12-10T21:56:08.784Z,73.83
2022-12-10T21:58:55.605Z,74.11
2022-12-10T22:01:49.818Z,74.36
2022-12-10T22:04:37.301Z,73.62
2022-12-10T22:07:25.046Z,73.63
2022-12-10T22:14:03.726Z,74.00
2022-12-10T22:16:50.935Z,74.08
2022-12-10T22:19:46.244Z,73.75
2022-12-10T22:22:34.367Z,73.75
2022-12-10T22:25:24.245Z,73.75
2022-12-10T22:28:13.185Z,73.97
2022-12-10T22:31:00.149Z,73.67
2022-12-10T22:33:50.034Z,73.96
2022-12-10T22:36:36.939Z,73.52
2022-12-10T22:39:26.996Z,73.56
2022-12-10T22:42:14.267Z,73.49
2022-12-10T22:45:01.259Z,73.91
2022-12-10T22:47:50.829Z,73.51
2022-12-10T22:50:40.132Z,73.74
2022-12-10T22:53:27.042Z,74.04
2022-12-10T22:56:14.999Z,73.99
2022-12-10T22:59:01.939Z,73.84
2022-12-10T23:01:48.869Z,73.87
2022-12-10T23:04:35.882Z,73.46
2022-12-10T23:07:22.848Z,73.75
2022-12-10T23:10:09.840Z,73.99
2022-12-10T23:13:13.795Z,73.49
2022-12-10T23:16:00.652Z,73.76
2022-12-10T23:18:50.667Z,73.50
2022-12-10T23:21:40.419Z,73.24
2022-12-10T23:24:27.367Z,74.00
2022-12-10T23:27:19.149Z,73.50
2022-12-10T23:30:08.154Z,73.67
2022-12-10T23:33:08.260Z,73.65
2022-12-10T23:35:58.812Z,73.20
2022-12-10T23:38:47.829Z,73.81
2022-12-10T23:41:34.658Z,73.83
2022-12-10T23:44:21.679Z,73.89
2022-12-10T23:47:14.038Z,73.64
2022-12-10T23:50:01.006Z,73.87
2022-12-10T23:52:48.133Z,73.65
2022-12-10T23:55:34.960Z,73.34
2022-12-10T23:58:22.127Z,73.42
